Time;durP1;ratioP1;P1;durP2;ratioP2;P2;SDS_P1;SDS_P2;PMS_P1;PMS_P2;Temp;Humidity;BMP_temperature;BMP_pressure;BME280_temperature;BME280_humidity;BME280_pressure;Samples;Min_cycle;Max_cycle;Signal;HPM_P1;HPM_P2
2023/09/29 00:00:15;;;;;;;20.23;6.03;;;;;;;17.20;100.00;101002.47;5015965;28;20044;-73
2023/09/29 00:02:40;;;;;;;17.45;6.15;;;;;;;17.22;100.00;101008.53;5012833;28;20084;-74
2023/09/29 00:05:06;;;;;;;11.02;5.32;;;;;;;17.22;100.00;101001.25;5013220;28;20025;-73
2023/09/29 00:07:31;;;;;;;16.75;7.40;;;;;;;17.16;100.00;100972.41;5013119;28;20077;-73
2023/09/29 00:09:57;;;;;;;18.73;6.27;;;;;;;17.29;100.00;100975.13;5014585;28;20062;-73
2023/09/29 00:12:22;;;;;;;20.87;6.37;;;;;;;17.29;100.00;100972.44;5015164;28;20036;-74
2023/09/29 00:14:47;;;;;;;13.23;5.60;;;;;;;17.32;100.00;100962.28;5013070;28;20022;-74
2023/09/29 00:17:13;;;;;;;16.57;6.60;;;;;;;17.32;100.00;100956.88;5012042;28;20042;-74
2023/09/29 00:19:39;;;;;;;17.45;8.07;;;;;;;17.19;100.00;100958.50;5014215;28;20814;-74
2023/09/29 00:22:04;;;;;;;20.23;6.93;;;;;;;17.19;100.00;100946.88;5015585;28;20519;-74
2023/09/29 00:24:29;;;;;;;20.73;6.83;;;;;;;17.21;100.00;100937.53;5013912;28;20512;-74
2023/09/29 00:26:55;;;;;;;14.17;6.13;;;;;;;17.27;100.00;100954.78;5012810;28;20026;-74
2023/09/29 00:29:20;;;;;;;18.20;6.87;;;;;;;17.27;100.00;100944.81;5013881;28;20500;-74
2023/09/29 00:31:47;;;;;;;17.00;7.70;;;;;;;17.36;100.00;100964.38;5009236;28;20033;-74
2023/09/29 00:34:12;;;;;;;25.38;8.88;;;;;;;17.42;100.00;100938.44;5014640;28;20111;-74
2023/09/29 00:36:38;;;;;;;13.80;6.53;;;;;;;17.47;100.00;100938.69;5014551;28;20104;-74
2023/09/29 00:39:07;;;;;;;12.77;7.68;;;;;;;17.46;100.00;100928.91;5015214;28;20548;-74
2023/09/29 00:41:33;;;;;;;18.65;8.23;;;;;;;17.45;100.00;100902.97;5011043;28;20032;-75
2023/09/29 00:43:59;;;;;;;22.48;7.53;;;;;;;17.49;100.00;100917.72;5009363;28;20026;-75
2023/09/29 00:46:25;;;;;;;15.13;6.45;;;;;;;17.54;100.00;100900.91;5012594;28;20196;-75
2023/09/29 00:48:52;;;;;;;12.38;7.40;;;;;;;17.47;100.00;100896.31;5013429;28;20388;-75
2023/09/29 00:51:20;;;;;;;15.38;7.45;;;;;;;17.46;100.00;100901.91;5014012;28;20041;-75
2023/09/29 00:53:51;;;;;;;17.05;6.55;;;;;;;17.59;100.00;100896.53;5009325;28;20129;-75
2023/09/29 00:56:16;;;;;;;16.05;7.05;;;;;;;17.64;100.00;100891.34;5014713;28;20443;-75
2023/09/29 00:58:43;;;;;;;20.88;8.50;;;;;;;17.60;100.00;100883.88;5016182;28;20057;-75
2023/09/29 01:01:12;;;;;;;11.37;7.00;;;;;;;17.59;100.00;100887.63;4999972;28;20034;-75
2023/09/29 01:03:37;;;;;;;16.02;6.80;;;;;;;17.67;100.00;100880.13;5013461;28;20069;-75
2023/09/29 01:06:06;;;;;;;12.53;7.13;;;;;;;17.68;100.00;100870.19;5016645;28;20022;-75
2023/09/29 01:08:31;;;;;;;15.65;8.32;;;;;;;17.67;100.00;100853.13;5016785;28;20038;-75
2023/09/29 01:10:57;;;;;;;17.77;8.40;;;;;;;17.72;100.00;100852.50;5015185;28;20064;-75
2023/09/29 01:13:25;;;;;;;15.83;7.63;;;;;;;17.60;100.00;100857.69;5014342;28;20100;-75
2023/09/29 01:15:50;;;;;;;14.32;6.90;;;;;;;17.68;100.00;100892.63;5020255;28;20448;-74
2023/09/29 01:18:16;;;;;;;15.83;7.83;;;;;;;17.71;100.00;100873.28;5017417;28;20091;-75
2023/09/29 01:20:43;;;;;;;11.70;6.83;;;;;;;17.68;100.00;100857.50;5009499;28;20412;-74
2023/09/29 01:23:09;;;;;;;17.00;7.85;;;;;;;17.72;100.00;100858.78;5007768;28;20034;-75
2023/09/29 01:25:36;;;;;;;18.83;7.60;;;;;;;17.69;100.00;100861.88;5016228;28;20037;-75
2023/09/29 01:28:05;;;;;;;12.07;6.85;;;;;;;17.73;100.00;100852.31;5016518;28;20029;-75
2023/09/29 01:30:31;;;;;;;14.13;7.28;;;;;;;17.79;100.00;100837.16;5015255;28;20037;-74
2023/09/29 01:32:57;;;;;;;13.88;6.88;;;;;;;17.80;100.00;100848.81;5004182;28;20030;-74
2023/09/29 01:35:23;;;;;;;12.25;6.88;;;;;;;17.75;100.00;100851.25;5015914;28;20130;-73
2023/09/29 01:37:53;;;;;;;15.40;7.65;;;;;;;17.68;100.00;100835.91;5011486;28;20281;-74
2023/09/29 01:40:21;;;;;;;15.60;6.95;;;;;;;17.64;100.00;100847.34;5017953;28;20052;-74
2023/09/29 01:42:46;;;;;;;16.30;7.80;;;;;;;17.53;100.00;100856.88;5013367;28;20121;-74
2023/09/29 01:45:13;;;;;;;13.10;7.43;;;;;;;17.45;100.00;100875.97;5017229;28;20462;-74
2023/09/29 01:47:42;;;;;;;13.45;7.05;;;;;;;17.49;100.00;100896.13;5016229;28;20048;-74
2023/09/29 01:50:08;;;;;;;14.48;7.05;;;;;;;17.47;100.00;100900.88;5005131;28;20120;-74
2023/09/29 01:52:34;;;;;;;14.50;7.40;;;;;;;17.49;100.00;100909.63;5013981;28;20029;-74
2023/09/29 01:55:02;;;;;;;18.43;7.07;;;;;;;17.43;100.00;100926.63;5015233;28;20559;-74
2023/09/29 01:57:27;;;;;;;14.27;5.80;;;;;;;17.41;100.00;100959.19;5010956;28;20460;-74
2023/09/29 01:59:54;;;;;;;10.95;6.63;;;;;;;17.55;100.00;101002.44;5013131;28;20492;-74
2023/09/29 02:02:19;;;;;;;10.52;5.88;;;;;;;17.56;100.00;100985.19;5016249;28;20052;-74
2023/09/29 02:04:47;;;;;;;11.93;6.00;;;;;;;17.57;100.00;100976.91;5015465;28;20583;-74
2023/09/29 02:07:12;;;;;;;11.77;6.95;;;;;;;17.58;100.00;101010.94;5008019;28;20022;-74
2023/09/29 02:09:38;;;;;;;14.57;6.07;;;;;;;17.54;100.00;101001.59;5017261;28;20065;-75
2023/09/29 02:12:03;;;;;;;17.92;7.95;;;;;;;17.50;100.00;101006.56;5015067;28;20033;-74
2023/09/29 02:14:29;;;;;;;14.73;7.88;;;;;;;17.45;100.00;100968.56;5011535;28;20098;-74
2023/09/29 02:16:55;;;;;;;13.90;7.20;;;;;;;17.49;100.00;100945.53;5000533;28;20033;-74
2023/09/29 02:19:21;;;;;;;13.52;6.30;;;;;;;17.54;100.00;100958.41;5012445;28;20033;-74
2023/09/29 02:21:46;;;;;;;13.95;7.57;;;;;;;17.54;100.00;100987.28;5012203;28;20444;-74
2023/09/29 02:24:12;;;;;;;14.07;7.00;;;;;;;17.46;100.00;101013.38;5014217;28;20037;-75
2023/09/29 02:26:38;;;;;;;14.27;6.53;;;;;;;17.39;100.00;101022.50;5010574;28;20070;-75
2023/09/29 02:29:04;;;;;;;12.77;6.60;;;;;;;17.38;100.00;101042.44;5015618;28;20022;-74
2023/09/29 02:31:30;;;;;;;11.57;6.10;;;;;;;17.27;100.00;101028.47;5014177;28;20267;-74
2023/09/29 02:33:55;;;;;;;10.10;6.40;;;;;;;17.27;100.00;101052.75;5011794;28;20039;-74
2023/09/29 02:36:20;;;;;;;19.07;8.97;;;;;;;17.17;100.00;101044.19;5014708;28;20021;-74
2023/09/29 02:38:48;;;;;;;12.97;7.03;;;;;;;17.15;100.00;101046.25;5008851;28;20497;-73
2023/09/29 02:41:13;;;;;;;14.00;6.63;;;;;;;17.12;100.00;101057.44;5016091;28;20063;-74
2023/09/29 02:43:39;;;;;;;13.63;8.37;;;;;;;17.05;100.00;101032.28;5012688;28;20069;-74
2023/09/29 02:46:04;;;;;;;14.88;8.00;;;;;;;17.12;100.00;101022.38;5014529;28;20441;-74
2023/09/29 02:48:30;;;;;;;16.27;7.70;;;;;;;17.08;100.00;101002.22;5013333;28;20111;-73
2023/09/29 02:50:55;;;;;;;19.27;9.13;;;;;;;17.12;100.00;101003.50;5014132;28;20117;-74
2023/09/29 02:53:21;;;;;;;15.60;7.73;;;;;;;17.18;100.00;100999.16;5014540;28;20091;-74
2023/09/29 02:55:47;;;;;;;10.85;6.47;;;;;;;17.19;100.00;101000.84;5013791;28;20034;-74
2023/09/29 02:58:13;;;;;;;16.23;7.50;;;;;;;17.15;100.00;101011.19;5015104;28;20052;-74
2023/09/29 03:00:41;;;;;;;13.27;6.72;;;;;;;17.11;100.00;101015.28;5010119;28;20041;-74
2023/09/29 03:03:09;;;;;;;15.65;6.18;;;;;;;17.04;100.00;101028.78;5001021;28;20029;-74
2023/09/29 03:05:35;;;;;;;12.05;6.97;;;;;;;16.99;100.00;101023.13;5012666;28;20018;-74
2023/09/29 03:08:01;;;;;;;11.48;7.65;;;;;;;16.95;100.00;101021.00;5015328;28;20038;-73
2023/09/29 03:10:28;;;;;;;14.40;6.72;;;;;;;16.90;100.00;101029.69;5030597;28;20029;-73
2023/09/29 03:12:57;;;;;;;19.42;7.55;;;;;;;16.88;100.00;101048.78;5013293;28;20061;-74
2023/09/29 03:15:23;;;;;;;11.20;6.70;;;;;;;16.79;100.00;101027.56;5013476;28;20033;-74
2023/09/29 03:17:49;;;;;;;14.95;7.80;;;;;;;16.78;100.00;101040.16;5012056;28;20032;-74
2023/09/29 03:20:16;;;;;;;15.63;7.53;;;;;;;16.81;100.00;101039.81;5011904;28;20033;-74
2023/09/29 03:22:43;;;;;;;;;;;;;;;16.85;100.00;101035.66;5014184;28;20488;-74
2023/09/29 03:25:09;;;;;;;14.02;7.43;;;;;;;16.82;100.00;101021.78;5031700;28;19917;-74
2023/09/29 03:27:36;;;;;;;12.00;7.85;;;;;;;16.76;100.00;101028.72;5011531;28;20421;-73
2023/09/29 03:30:04;;;;;;;13.02;7.78;;;;;;;16.73;100.00;101022.91;5014439;28;20050;-74
2023/09/29 03:32:29;;;;;;;18.90;7.65;;;;;;;16.71;100.00;101025.78;5011002;28;20212;-74
2023/09/29 03:34:55;;;;;;;14.20;7.97;;;;;;;16.65;100.00;101034.69;5014602;28;20088;-74
2023/09/29 03:37:20;;;;;;;18.07;7.70;;;;;;;16.63;100.00;101032.16;5014431;28;20025;-74
2023/09/29 03:39:48;;;;;;;14.70;8.25;;;;;;;16.60;100.00;101040.66;5010258;28;20496;-73
2023/09/29 03:42:14;;;;;;;17.40;7.85;;;;;;;16.56;100.00;101042.06;5014843;28;20027;-74
2023/09/29 03:44:39;;;;;;;16.65;8.23;;;;;;;16.54;100.00;101035.22;5010190;28;20091;-74
2023/09/29 03:47:04;;;;;;;13.90;8.87;;;;;;;16.56;100.00;101038.53;5015219;28;20033;-74
2023/09/29 03:49:31;;;;;;;11.53;7.80;;;;;;;16.57;100.00;101032.13;5014457;28;20029;-73
2023/09/29 03:51:57;;;;;;;;;;;;;;;16.56;100.00;101027.75;5011900;28;20076;-74
2023/09/29 03:54:23;;;;;;;18.25;9.13;;;;;;;16.58;100.00;101025.72;5015058;28;19913;-74
2023/09/29 03:56:51;;;;;;;13.80;7.72;;;;;;;16.56;100.00;101019.69;5012724;28;20069;-74
2023/09/29 03:59:17;;;;;;;15.65;9.45;;;;;;;16.51;100.00;101024.81;5015927;28;20022;-74
2023/09/29 04:01:44;;;;;;;15.60;8.10;;;;;;;16.51;100.00;101031.03;5015808;28;20460;-74
2023/09/29 04:04:09;;;;;;;15.90;8.38;;;;;;;16.50;100.00;101037.44;5016154;28;20040;-74
2023/09/29 04:06:35;;;;;;;12.33;7.63;;;;;;;16.51;100.00;101041.81;5009204;28;20452;-73
2023/09/29 04:09:00;;;;;;;12.93;8.33;;;;;;;16.49;100.00;101037.66;5015119;28;20038;-73
2023/09/29 04:11:26;;;;;;;16.43;9.07;;;;;;;16.43;100.00;101023.91;5014736;28;20029;-74
2023/09/29 04:13:52;;;;;;;11.27;7.90;;;;;;;16.43;100.00;101029.31;5016227;28;20305;-74
2023/09/29 04:16:17;;;;;;;22.00;9.67;;;;;;;16.44;100.00;101024.78;5015552;28;20075;-74
2023/09/29 04:18:43;;;;;;;19.05;9.45;;;;;;;16.42;100.00;101003.41;5012632;28;20038;-74
2023/09/29 04:21:12;;;;;;;16.30;10.07;;;;;;;16.45;100.00;100994.09;5015860;28;20037;-74
2023/09/29 04:23:38;;;;;;;18.27;9.82;;;;;;;16.53;100.00;100985.00;5009267;28;20050;-74
2023/09/29 04:26:03;;;;;;;17.63;10.30;;;;;;;16.54;100.00;100975.91;5015329;28;20249;-74
2023/09/29 04:28:29;;;;;;;18.23;9.93;;;;;;;16.59;100.00;100968.06;5013655;28;20324;-74
2023/09/29 04:30:54;;;;;;;19.23;10.77;;;;;;;16.66;100.00;100960.84;5012586;28;20022;-74
2023/09/29 04:33:19;;;;;;;19.10;9.60;;;;;;;16.64;100.00;100942.19;5011925;28;20572;-74
2023/09/29 04:35:45;;;;;;;20.23;10.00;;;;;;;16.68;100.00;100948.03;5012315;28;20340;-74
2023/09/29 04:38:10;;;;;;;16.27;10.90;;;;;;;16.67;100.00;100932.88;5014849;28;20048;-74
2023/09/29 04:40:37;;;;;;;17.48;10.88;;;;;;;16.71;100.00;100928.75;5015121;28;20046;-74
2023/09/29 04:43:03;;;;;;;17.38;10.68;;;;;;;16.62;100.00;100924.53;5018899;28;20026;-74
2023/09/29 04:45:29;;;;;;;16.10;10.80;;;;;;;16.65;100.00;100940.34;5013359;28;20466;-74
2023/09/29 04:47:54;;;;;;;23.43;11.53;;;;;;;16.65;100.00;100945.72;5029597;28;20034;-74
2023/09/29 04:50:20;;;;;;;21.08;10.95;;;;;;;16.65;100.00;100926.88;5018663;28;20575;-74
2023/09/29 04:52:45;;;;;;;16.57;11.03;;;;;;;16.64;100.00;100934.09;5016377;28;20401;-73
2023/09/29 04:55:10;;;;;;;21.80;12.20;;;;;;;16.67;100.00;100938.28;5034665;28;20030;-74
2023/09/29 04:57:36;;;;;;;22.03;11.70;;;;;;;16.66;100.00;100932.03;5014568;28;20621;-73
2023/09/29 05:00:03;;;;;;;19.27;12.05;;;;;;;16.66;100.00;100917.72;5017023;28;20311;-74
2023/09/29 05:02:30;;;;;;;21.50;11.75;;;;;;;16.65;100.00;100924.16;5017397;28;20035;-74
2023/09/29 05:04:56;;;;;;;;;;;;;;;16.67;100.00;100938.28;5017569;28;20046;-73
2023/09/29 05:07:21;;;;;;;21.08;10.55;;;;;;;16.61;100.00;100928.28;5018147;28;20438;-74
2023/09/29 05:09:46;;;;;;;17.70;11.13;;;;;;;16.70;100.00;100937.88;5014442;28;20413;-74
2023/09/29 05:12:12;;;;;;;17.73;11.93;;;;;;;16.68;100.00;100926.44;5019288;28;20033;-74
2023/09/29 05:14:38;;;;;;;24.10;12.57;;;;;;;16.60;100.00;100915.81;5015784;28;20397;-74
2023/09/29 05:17:03;;;;;;;17.10;12.40;;;;;;;16.63;100.00;100926.22;5017946;28;20088;-74
2023/09/29 05:19:28;;;;;;;19.57;12.37;;;;;;;16.61;100.00;100925.59;5016770;28;20040;-74
2023/09/29 05:21:54;;;;;;;16.70;11.73;;;;;;;16.59;100.00;100933.03;5015585;28;20041;-74
2023/09/29 05:24:19;;;;;;;15.83;10.90;;;;;;;16.71;100.00;100938.69;5016816;28;20080;-74
2023/09/29 05:26:44;;;;;;;19.20;13.27;;;;;;;16.60;100.00;100930.16;5015457;28;20033;-73
2023/09/29 05:29:10;;;;;;;17.23;12.63;;;;;;;16.52;100.00;100932.97;5017998;28;20083;-74
2023/09/29 05:31:36;;;;;;;18.67;11.95;;;;;;;16.57;100.00;100938.59;5014255;28;20050;-74
2023/09/29 05:34:01;;;;;;;23.40;12.77;;;;;;;16.52;100.00;100919.50;5017606;28;20040;-73
2023/09/29 05:36:29;;;;;;;18.73;14.30;;;;;;;16.53;100.00;100933.81;5016583;28;20404;-74
2023/09/29 05:38:54;;;;;;;21.58;11.77;;;;;;;16.57;100.00;100932.41;5019673;28;20768;-74
2023/09/29 05:41:20;;;;;;;16.60;12.17;;;;;;;16.39;100.00;100930.22;5047299;23;20092;-75
2023/09/29 05:43:45;;;;;;;19.87;13.60;;;;;;;16.41;100.00;100955.06;5045899;28;20047;-72
2023/09/29 05:46:10;;;;;;;16.87;11.83;;;;;;;16.51;100.00;100954.75;5039392;28;20030;-72
2023/09/29 05:48:37;;;;;;;17.87;12.77;;;;;;;16.51;100.00;100952.06;5044898;28;20032;-73
2023/09/29 05:51:02;;;;;;;17.15;11.73;;;;;;;16.54;100.00;100943.56;5046549;28;20332;-73
2023/09/29 05:53:28;;;;;;;17.37;11.20;;;;;;;16.64;100.00;100944.88;5047001;28;20368;-73
2023/09/29 05:55:53;;;;;;;19.03;12.00;;;;;;;16.60;100.00;100926.59;5041447;28;20517;-73
2023/09/29 05:58:20;;;;;;;16.73;12.90;;;;;;;16.65;100.00;100916.06;5045964;28;20407;-73
2023/09/29 06:00:45;;;;;;;16.77;12.40;;;;;;;16.64;100.00;100904.44;5045358;28;20039;-73
2023/09/29 06:03:11;;;;;;;17.83;12.10;;;;;;;16.61;100.00;100917.50;5045726;28;20425;-73
2023/09/29 06:05:36;;;;;;;16.10;11.10;;;;;;;16.66;100.00;100928.50;5042761;28;20711;-73
2023/09/29 06:08:01;;;;;;;18.57;11.43;;;;;;;16.75;100.00;100913.84;5045720;28;20064;-73
2023/09/29 06:10:27;;;;;;;19.93;10.83;;;;;;;16.73;100.00;100910.50;5046631;28;20032;-73
2023/09/29 06:12:52;;;;;;;14.77;12.10;;;;;;;16.65;100.00;100918.78;5042436;28;20100;-72
2023/09/29 06:15:18;;;;;;;17.58;11.75;;;;;;;16.64;100.00;100926.00;5045134;28;20101;-73
2023/09/29 06:17:44;;;;;;;17.13;10.77;;;;;;;16.68;100.00;100939.94;5052652;28;20223;-73
2023/09/29 06:20:09;;;;;;;23.17;12.50;;;;;;;16.79;100.00;100941.28;5046287;28;20388;-73
2023/09/29 06:22:35;;;;;;;17.40;11.98;;;;;;;16.85;100.00;100925.13;5044114;28;20466;-73
2023/09/29 06:25:00;;;;;;;18.27;11.33;;;;;;;16.78;100.00;100901.81;5042519;28;20071;-73
2023/09/29 06:27:27;;;;;;;18.63;11.73;;;;;;;16.71;100.00;100885.63;5045848;28;20437;-73
2023/09/29 06:29:52;;;;;;;;;;;;;;;16.79;100.00;100912.44;5045052;28;20040;-73
2023/09/29 06:32:17;;;;;;;;;;;;;;;16.96;100.00;100904.03;5046286;28;19925;-73
2023/09/29 06:34:43;;;;;;;17.20;11.37;;;;;;;16.87;100.00;100876.41;5046280;28;19913;-73
2023/09/29 06:37:09;;;;;;;19.27;12.10;;;;;;;16.97;100.00;100884.09;5044703;28;20112;-73
2023/09/29 06:39:35;;;;;;;18.60;10.88;;;;;;;17.05;100.00;100887.47;5044834;28;20470;-73
2023/09/29 06:42:01;;;;;;;17.55;11.65;;;;;;;16.91;100.00;100858.78;5035779;28;20441;-73
2023/09/29 06:44:26;;;;;;;14.80;11.02;;;;;;;17.10;100.00;100876.06;5043253;28;20037;-73
2023/09/29 06:46:52;;;;;;;16.47;10.87;;;;;;;17.01;100.00;100878.09;5045481;28;20071;-73
2023/09/29 06:49:17;;;;;;;17.07;10.57;;;;;;;17.06;100.00;100877.50;5041796;28;20079;-73
2023/09/29 06:51:42;;;;;;;16.67;10.37;;;;;;;17.16;100.00;100855.53;5045907;28;20033;-73
2023/09/29 06:54:08;;;;;;;19.17;10.30;;;;;;;17.15;100.00;100827.72;5045921;28;20029;-73
2023/09/29 06:56:33;;;;;;;19.63;10.50;;;;;;;17.19;100.00;100845.19;5027254;28;20468;-73
2023/09/29 06:58:59;;;;;;;15.73;11.13;;;;;;;17.21;100.00;100839.59;5027461;28;20040;-73
2023/09/29 07:01:26;;;;;;;14.65;11.52;;;;;;;17.39;100.00;100844.38;5045050;28;20053;-73
2023/09/29 07:03:51;;;;;;;15.85;10.90;;;;;;;17.26;100.00;100831.72;5053548;28;20036;-73
2023/09/29 07:06:17;;;;;;;21.95;11.65;;;;;;;17.40;100.00;100837.97;5044461;28;20033;-73
2023/09/29 07:08:43;;;;;;;13.40;11.15;;;;;;;17.34;100.00;100827.97;5044363;28;20033;-73
2023/09/29 07:11:08;;;;;;;17.20;11.03;;;;;;;17.29;100.00;100832.13;5045400;28;20472;-73
2023/09/29 07:13:33;;;;;;;16.87;11.13;;;;;;;17.37;100.00;100843.75;5044203;28;20510;-73
2023/09/29 07:15:59;;;;;;;16.33;9.87;;;;;;;17.41;100.00;100837.75;5043456;28;20044;-73
2023/09/29 07:18:24;;;;;;;12.57;10.03;;;;;;;17.44;100.00;100813.06;5045018;28;20033;-74
2023/09/29 07:20:52;;;;;;;25.70;11.10;;;;;;;17.53;100.00;100816.38;5041708;28;20059;-73
2023/09/29 07:23:20;;;;;;;15.35;10.88;;;;;;;17.45;100.00;100811.19;5045105;28;20532;-73
2023/09/29 07:25:46;;;;;;;16.92;10.35;;;;;;;17.55;100.00;100819.69;5045127;28;20111;-73
2023/09/29 07:28:14;;;;;;;18.95;12.10;;;;;;;17.48;100.00;100803.50;5043890;28;20100;-73
2023/09/29 07:30:42;;;;;;;18.88;10.63;;;;;;;17.77;100.00;100819.50;5041812;28;20376;-73
2023/09/29 07:33:09;;;;;;;17.08;9.80;;;;;;;17.98;100.00;100781.50;5044515;28;20036;-74
2023/09/29 07:35:35;;;;;;;18.00;10.40;;;;;;;18.00;100.00;100748.88;5044882;28;20033;-73
2023/09/29 07:38:00;;;;;;;15.35;10.43;;;;;;;17.94;100.00;100745.16;5036175;28;20063;-73
2023/09/29 07:40:26;;;;;;;16.70;9.95;;;;;;;18.10;100.00;100749.28;5040536;28;20025;-73
2023/09/29 07:42:51;;;;;;;16.27;9.85;;;;;;;18.20;100.00;100738.03;5044563;28;20029;-73
2023/09/29 07:45:17;;;;;;;14.23;11.27;;;;;;;18.11;100.00;100746.34;5043509;28;20108;-73
2023/09/29 07:47:43;;;;;;;13.27;10.10;;;;;;;17.94;100.00;100777.56;5043651;28;20306;-73
2023/09/29 07:50:09;;;;;;;18.23;11.37;;;;;;;17.82;100.00;100773.84;5044927;28;20115;-73
2023/09/29 07:52:37;;;;;;;;;;;;;;;17.81;100.00;100828.88;5045067;28;20048;-73
2023/09/29 07:55:06;;;;;;;16.35;12.30;;;;;;;17.63;100.00;100797.91;5044910;28;20367;-73
2023/09/29 07:57:32;;;;;;;18.27;11.35;;;;;;;17.81;100.00;100842.38;5044449;28;20028;-73
2023/09/29 07:59:58;;;;;;;17.50;12.75;;;;;;;17.84;100.00;100841.94;5044622;28;20513;-73
2023/09/29 08:02:24;;;;;;;19.50;11.65;;;;;;;17.90;100.00;100855.47;5040027;28;20025;-73
2023/09/29 08:04:49;;;;;;;22.20;12.13;;;;;;;17.96;100.00;100842.16;5043660;28;20017;-73
2023/09/29 08:07:15;;;;;;;16.03;11.50;;;;;;;18.03;100.00;100861.91;5042089;28;20112;-73
2023/09/29 08:09:40;;;;;;;15.98;11.80;;;;;;;17.94;100.00;100842.38;5043342;28;20029;-73
2023/09/29 08:12:06;;;;;;;17.50;12.23;;;;;;;17.90;100.00;100862.75;5042893;28;20399;-73
2023/09/29 08:14:31;;;;;;;19.23;12.27;;;;;;;17.85;100.00;100878.75;5045805;28;20032;-73
2023/09/29 08:16:57;;;;;;;17.70;13.13;;;;;;;17.90;100.00;100882.47;5047690;28;20041;-73
2023/09/29 08:19:22;;;;;;;22.73;13.18;;;;;;;18.08;100.00;100892.66;5048484;28;20033;-73
2023/09/29 08:21:49;;;;;;;18.37;11.73;;;;;;;18.00;100.00;100870.41;5047530;28;20484;-73
2023/09/29 08:24:14;;;;;;;19.88;12.18;;;;;;;18.13;100.00;100879.34;5047821;28;20279;-73
2023/09/29 08:26:40;;;;;;;14.88;11.77;;;;;;;18.07;100.00;100861.25;5045536;28;20049;-73
2023/09/29 08:29:08;;;;;;;19.70;11.33;;;;;;;18.20;100.00;100870.41;5044486;28;20029;-73
2023/09/29 08:31:34;;;;;;;22.05;12.43;;;;;;;18.17;100.00;100857.31;5046415;28;20037;-73
2023/09/29 08:33:59;;;;;;;17.43;12.67;;;;;;;18.10;100.00;100841.97;5044273;28;20142;-73
2023/09/29 08:36:24;;;;;;;15.03;11.70;;;;;;;18.23;100.00;100878.91;5044221;28;20208;-73
2023/09/29 08:38:50;;;;;;;20.37;11.40;;;;;;;18.32;100.00;100850.63;5047323;28;20075;-73
2023/09/29 08:41:16;;;;;;;16.73;11.60;;;;;;;18.28;100.00;100846.69;5047417;28;20036;-73
2023/09/29 08:43:43;;;;;;;;;;;;;;;18.19;100.00;100849.81;5044754;28;20365;-73
2023/09/29 08:46:09;;;;;;;17.98;11.80;;;;;;;18.26;100.00;100853.34;5060371;28;20015;-73
2023/09/29 08:48:35;;;;;;;15.55;11.00;;;;;;;18.38;100.00;100875.16;5045626;28;20480;-73
2023/09/29 08:51:02;;;;;;;;;;;;;;;18.41;100.00;100869.34;5047124;28;20416;-73
2023/09/29 08:53:28;;;;;;;19.48;11.68;;;;;;;18.45;100.00;100852.50;5048039;28;20343;-73
2023/09/29 08:55:57;;;;;;;;;;;;;;;18.59;100.00;100860.53;5047701;28;20032;-73
2023/09/29 08:58:26;;;;;;;23.88;11.48;;;;;;;18.66;100.00;100839.72;5053808;28;19912;-73
2023/09/29 09:00:51;;;;;;;16.27;10.98;;;;;;;18.49;100.00;100842.91;5046569;28;20037;-73
2023/09/29 09:03:18;;;;;;;14.65;11.00;;;;;;;18.53;100.00;100840.63;5044150;28;20032;-73
2023/09/29 09:05:43;;;;;;;18.77;10.48;;;;;;;18.44;100.00;100831.06;5047759;28;20029;-74
2023/09/29 09:08:11;;;;;;;15.93;10.73;;;;;;;18.44;100.00;100826.50;5046862;28;20037;-73
2023/09/29 09:10:37;;;;;;;16.17;10.93;;;;;;;18.38;100.00;100838.16;5045502;28;20128;-73
2023/09/29 09:13:05;;;;;;;17.17;10.88;;;;;;;18.42;100.00;100841.25;5046886;28;20032;-73
2023/09/29 09:15:31;;;;;;;16.30;11.27;;;;;;;18.25;100.00;100828.19;5047682;28;20040;-73
2023/09/29 09:17:57;;;;;;;17.80;11.88;;;;;;;18.30;100.00;100814.06;5046624;28;20249;-73
2023/09/29 09:20:23;;;;;;;18.15;11.10;;;;;;;18.34;100.00;100826.13;5043821;28;20483;-73
2023/09/29 09:22:57;;;;;;;20.88;11.63;;;;;;;18.28;100.00;100843.16;5046471;28;20068;-73
2023/09/29 09:25:31;;;;;;;19.52;11.38;;;;;;;18.42;100.00;100850.19;5046640;28;20116;-73
2023/09/29 09:27:56;;;;;;;22.08;10.32;;;;;;;18.42;100.00;100846.66;5046558;28;20314;-73
2023/09/29 09:30:23;;;;;;;17.93;9.83;;;;;;;18.34;100.00;100850.44;5046664;28;20414;-74
2023/09/29 09:32:49;;;;;;;17.00;11.30;;;;;;;18.45;100.00;100843.53;5046797;28;20025;-74
2023/09/29 09:35:25;;;;;;;;;;;;;;;18.69;100.00;100850.13;5047281;28;20513;-74
2023/09/29 09:37:51;;;;;;;15.23;10.23;;;;;;;18.67;100.00;100798.97;5046189;28;19919;-73
2023/09/29 09:40:19;;;;;;;14.07;9.13;;;;;;;18.81;100.00;100786.25;5047250;28;20017;-73
2023/09/29 09:42:46;;;;;;;20.58;9.25;;;;;;;18.92;100.00;100763.91;5046984;28;20040;-74
2023/09/29 09:45:13;;;;;;;14.40;8.95;;;;;;;18.96;100.00;100678.59;5039631;28;20059;-74
2023/09/29 09:47:40;;;;;;;16.23;9.43;;;;;;;19.39;100.00;100668.84;5038873;28;20547;-73
2023/09/29 09:50:09;;;;;;;18.55;8.75;;;;;;;20.52;100.00;100601.66;5046478;28;20025;-74
2023/09/29 09:52:35;;;;;;;15.77;8.55;;;;;;;20.78;100.00;100348.16;5046807;28;20136;-74
2023/09/29 09:55:10;;;;;;;12.80;8.18;;;;;;;19.94;100.00;100326.72;5042342;28;20047;-73
2023/09/29 09:57:38;;;;;;;17.30;8.02;;;;;;;19.89;100.00;100394.34;5044958;28;20062;-73
2023/09/29 10:00:12;;;;;;;16.92;9.35;;;;;;;19.78;100.00;100432.00;5046168;28;20083;-74
2023/09/29 10:02:47;;;;;;;14.05;8.23;;;;;;;19.70;100.00;100401.72;5046155;28;20068;-73
2023/09/29 10:05:16;;;;;;;12.85;7.60;;;;;;;19.72;100.00;100373.34;5039015;28;20503;-74
2023/09/29 10:07:46;;;;;;;13.23;8.40;;;;;;;19.86;100.00;100409.19;5042590;28;20033;-74
2023/09/29 10:10:33;;;;;;;14.98;7.53;;;;;;;20.06;100.00;100389.06;5042906;28;20407;-74
2023/09/29 10:13:00;;;;;;;14.27;7.90;;;;;;;20.10;100.00;100409.22;5035621;28;20030;-73
2023/09/29 10:15:32;;;;;;;12.32;6.55;;;;;;;20.68;100.00;100331.69;5046480;28;20132;-74
2023/09/29 10:18:16;;;;;;;12.20;6.63;;;;;;;21.58;100.00;100176.13;5044399;28;20125;-74
2023/09/29 10:20:41;;;;;;;10.32;5.90;;;;;;;22.10;100.00;99958.34;5038939;28;20514;-74
2023/09/29 10:23:15;;;;;;;12.77;6.60;;;;;;;21.65;100.00;99988.56;5045902;28;20021;-74
2023/09/29 10:25:45;;;;;;;16.05;6.82;;;;;;;21.57;100.00;99954.53;5042579;28;20032;-74
2023/09/29 10:28:12;;;;;;;14.07;6.82;;;;;;;21.47;100.00;99976.97;5042338;28;20060;-75
2023/09/29 10:30:39;;;;;;;10.35;6.45;;;;;;;21.34;100.00;99995.47;5045005;28;20028;-74
2023/09/29 10:33:13;;;;;;;7.47;5.97;;;;;;;20.72;100.00;100070.56;5046250;28;20033;-74
2023/09/29 10:35:46;;;;;;;13.38;7.15;;;;;;;20.70;100.00;100112.53;5045643;28;20476;-75
2023/09/29 10:38:29;;;;;;;13.32;6.00;;;;;;;21.21;100.00;100124.22;5045440;28;20041;-74
2023/09/29 10:40:55;;;;;;;14.88;6.05;;;;;;;20.99;100.00;100040.06;5042837;28;20508;-74
2023/09/29 10:43:24;;;;;;;14.45;5.55;;;;;;;21.02;100.00;99996.13;5043726;28;20045;-74
2023/09/29 10:45:50;;;;;;;10.32;5.50;;;;;;;20.83;100.00;99982.84;5042150;28;20068;-74
2023/09/29 10:48:22;;;;;;;17.48;6.63;;;;;;;20.97;100.00;99942.59;5045312;28;20071;-74
2023/09/29 10:50:51;;;;;;;8.55;4.82;;;;;;;21.18;100.00;100008.84;5041881;28;20040;-74
2023/09/29 10:53:21;;;;;;;9.57;4.65;;;;;;;21.29;100.00;99944.66;5045928;28;20063;-74
2023/09/29 10:55:49;;;;;;;14.15;4.72;;;;;;;21.45;100.00;99903.06;5041221;28;20045;-75
2023/09/29 10:58:17;;;;;;;11.73;4.75;;;;;;;21.73;100.00;99875.91;5041907;28;20039;-74
2023/09/29 11:00:46;;;;;;;10.38;4.75;;;;;;;21.43;100.00;99761.31;5046238;28;20021;-75
2023/09/29 11:03:13;;;;;;;11.07;4.80;;;;;;;21.67;100.00;99848.69;5037933;28;20037;-75
2023/09/29 11:05:58;;;;;;;11.25;5.63;;;;;;;21.23;100.00;99669.59;5041764;28;20029;-74